createdAt,value
2024-05-09T00:00:40.860Z,20.20
2024-05-09T00:10:40.777Z,18.20
2024-05-09T00:20:41.207Z,19.00
2024-05-09T00:30:39.910Z,19.60
2024-05-09T00:40:42.477Z,19.80
2024-05-09T00:50:41.225Z,19.90
2024-05-09T01:00:41.544Z,20.50
2024-05-09T01:10:43.734Z,18.00
2024-05-09T01:20:43.853Z,18.30
2024-05-09T01:30:40.975Z,18.50
2024-05-09T01:40:42.207Z,19.80
2024-05-09T01:50:43.021Z,18.90
2024-05-09T02:00:43.302Z,20.60
2024-05-09T02:10:41.762Z,22.30
2024-05-09T02:20:44.323Z,20.80
2024-05-09T02:30:42.695Z,20.50
2024-05-09T02:40:42.467Z,22.00
2024-05-09T02:50:42.539Z,20.10
2024-05-09T03:00:43.205Z,19.90
2024-05-09T03:10:43.032Z,19.50
2024-05-09T03:20:42.883Z,18.30
2024-05-09T03:30:43.510Z,19.10
2024-05-09T03:40:43.408Z,21.00
2024-05-09T03:50:43.571Z,20.70
2024-05-09T04:00:43.680Z,21.90
2024-05-09T04:10:43.715Z,20.30
2024-05-09T04:20:44.037Z,23.40
2024-05-09T04:30:44.169Z,23.80
2024-05-09T04:40:44.528Z,18.60
2024-05-09T04:50:44.631Z,18.90
2024-05-09T05:00:44.748Z,20.80
2024-05-09T05:10:44.714Z,17.50
2024-05-09T05:20:45.364Z,18.60
2024-05-09T05:30:45.149Z,18.00
2024-05-09T05:40:45.586Z,25.60
2024-05-09T05:50:45.753Z,21.10
2024-05-09T06:00:45.778Z,12.50
2024-05-09T06:10:45.953Z,14.10
2024-05-09T06:20:45.970Z,13.10
2024-05-09T06:30:45.948Z,9.60
2024-05-09T06:40:46.916Z,11.50
2024-05-09T06:50:46.318Z,13.60
2024-05-09T07:00:46.662Z,12.20
2024-05-09T07:10:46.845Z,13.20
2024-05-09T07:20:47.511Z,13.40
2024-05-09T07:30:46.968Z,13.30
2024-05-09T07:40:47.304Z,15.00
2024-05-09T08:00:47.632Z,13.30
2024-05-09T08:10:47.690Z,12.20
2024-05-09T08:20:48.027Z,11.20
2024-05-09T08:30:48.181Z,6.40
2024-05-09T08:40:48.580Z,7.60
2024-05-09T08:50:48.438Z,7.30
2024-05-09T09:00:49.689Z,6.60
2024-05-09T09:10:48.782Z,5.50
2024-05-09T09:20:49.045Z,5.80
2024-05-09T09:30:49.117Z,5.30
2024-05-09T09:40:50.018Z,3.90
2024-05-09T09:50:49.364Z,3.00
2024-05-09T10:00:49.684Z,4.10
2024-05-09T10:10:50.528Z,3.40
2024-05-09T10:20:49.897Z,3.60
2024-05-09T10:30:50.520Z,3.80
2024-05-09T10:40:50.243Z,3.10
2024-05-09T10:50:50.388Z,3.20
2024-05-09T11:00:51.005Z,4.60
2024-05-09T11:10:50.816Z,2.70
2024-05-09T11:20:51.056Z,2.80
2024-05-09T11:30:51.292Z,2.30
2024-05-09T11:40:51.308Z,2.30
2024-05-09T11:50:51.462Z,3.60
2024-05-09T12:00:51.917Z,2.60
2024-05-09T12:10:52.048Z,2.40
2024-05-09T12:20:52.212Z,2.20
2024-05-09T12:30:52.222Z,2.10
2024-05-09T12:40:52.594Z,2.20
2024-05-09T12:50:52.671Z,1.90
2024-05-09T13:00:53.253Z,1.90
2024-05-09T13:10:53.112Z,1.90
2024-05-09T13:20:53.156Z,4.90
2024-05-09T13:30:53.351Z,5.70
2024-05-09T13:40:53.864Z,3.10
2024-05-09T13:50:53.632Z,8.00
2024-05-09T14:00:54.047Z,4.20
2024-05-09T14:10:54.117Z,1.60
2024-05-09T14:20:54.164Z,1.40
2024-05-09T14:30:54.172Z,1.40
2024-05-09T14:40:54.545Z,1.50
2024-05-09T14:50:54.499Z,3.10
2024-05-09T15:00:54.862Z,1.00
2024-05-09T15:10:54.935Z,1.70
2024-05-09T15:20:55.079Z,1.70
2024-05-09T15:30:55.287Z,2.50
2024-05-09T15:40:55.914Z,1.50
2024-05-09T15:50:55.757Z,1.90
2024-05-09T16:00:56.178Z,5.00
2024-05-09T16:10:56.072Z,2.80
2024-05-09T16:20:56.186Z,3.70
2024-05-09T16:30:56.412Z,2.60
2024-05-09T16:40:56.718Z,3.20
2024-05-09T16:50:56.851Z,2.90
2024-05-09T17:00:57.169Z,3.30
2024-05-09T17:10:57.222Z,3.10
2024-05-09T17:20:57.266Z,3.90
2024-05-09T17:30:57.501Z,4.00
2024-05-09T17:40:57.873Z,4.20
2024-05-09T17:50:57.862Z,4.40
2024-05-09T18:00:58.245Z,6.20
2024-05-09T18:10:58.391Z,5.70
2024-05-09T18:20:58.491Z,4.40
2024-05-09T18:30:58.486Z,4.50
2024-05-09T18:40:58.860Z,5.10
2024-05-09T18:50:58.762Z,7.20
2024-05-09T19:01:00.982Z,5.90
2024-05-09T19:10:59.047Z,5.50
2024-05-09T19:20:59.286Z,5.10
2024-05-09T19:30:59.486Z,5.70
2024-05-09T19:40:59.796Z,6.20
2024-05-09T19:50:59.811Z,7.70
2024-05-09T20:01:00.150Z,6.90
2024-05-09T20:11:00.139Z,7.20
2024-05-09T20:21:00.752Z,6.80
2024-05-09T20:31:00.506Z,7.70
2024-05-09T20:41:00.869Z,7.00
2024-05-09T20:51:00.796Z,8.90
2024-05-09T21:01:01.105Z,7.00
2024-05-09T21:11:01.125Z,7.10
2024-05-09T21:21:01.366Z,8.20
2024-05-09T21:31:01.541Z,7.20
2024-05-09T21:41:01.939Z,7.20
2024-05-09T21:51:01.916Z,7.70
2024-05-09T22:01:02.276Z,8.10
2024-05-09T22:11:02.547Z,10.70
2024-05-09T22:21:02.614Z,11.40
2024-05-09T22:31:02.806Z,13.20
2024-05-09T22:41:03.076Z,10.50
2024-05-09T22:51:03.383Z,11.50
2024-05-09T23:01:03.589Z,11.00
2024-05-09T23:11:03.688Z,8.30
2024-05-09T23:21:03.970Z,9.40
2024-05-09T23:31:03.955Z,7.60
2024-05-09T23:41:04.131Z,8.30
2024-05-09T23:51:04.317Z,7.00
